createdAt,value
2023-04-18T00:01:09.678Z,3.83
2023-04-18T00:03:15.901Z,3.69
2023-04-18T00:05:18.208Z,3.65
2023-04-18T00:07:19.995Z,3.82
2023-04-18T00:09:21.764Z,3.89
2023-04-18T00:11:23.395Z,3.94
2023-04-18T00:13:25.087Z,3.95
2023-04-18T00:15:26.696Z,3.90
2023-04-18T00:17:28.381Z,3.95
2023-04-18T00:19:30.112Z,3.86
2023-04-18T00:21:31.971Z,3.83
2023-04-18T00:23:34.319Z,3.84
2023-04-18T00:25:35.922Z,3.86
2023-04-18T00:27:38.947Z,4.02
2023-04-18T00:29:40.834Z,4.04
2023-04-18T00:31:43.226Z,3.93
2023-04-18T00:33:44.993Z,3.87
2023-04-18T00:35:46.513Z,3.88
2023-04-18T00:37:49.617Z,4.02
2023-04-18T00:39:53.835Z,4.05
2023-04-18T00:41:55.603Z,4.09
2023-04-18T00:43:57.240Z,4.17
2023-04-18T00:46:01.419Z,4.34
2023-04-18T00:48:03.466Z,4.62
2023-04-18T00:50:05.976Z,4.73
2023-04-18T00:52:07.614Z,4.70
2023-04-18T00:54:11.252Z,4.78
2023-04-18T00:56:13.011Z,4.83
2023-04-18T00:58:14.612Z,4.96
2023-04-18T01:00:16.501Z,5.10
2023-04-18T01:02:19.166Z,5.23
2023-04-18T01:04:20.976Z,5.36
2023-04-18T01:06:23.557Z,5.30
2023-04-18T01:08:25.464Z,5.30
2023-04-18T01:10:28.610Z,5.17
2023-04-18T01:12:30.685Z,5.24
2023-04-18T01:14:32.508Z,5.39
2023-04-18T01:16:34.152Z,5.48
2023-04-18T01:18:36.976Z,5.59
2023-04-18T01:20:46.601Z,5.54
2023-04-18T01:22:48.102Z,5.58
2023-04-18T01:24:49.652Z,5.52
2023-04-18T01:26:52.436Z,5.56
2023-04-18T01:28:54.316Z,5.54
2023-04-18T01:30:55.900Z,5.47
2023-04-18T01:32:57.568Z,5.49
2023-04-18T01:35:01.999Z,5.53
2023-04-18T01:37:03.654Z,5.39
2023-04-18T01:39:05.397Z,5.41
2023-04-18T01:41:07.143Z,5.43
2023-04-18T01:43:08.842Z,5.41
2023-04-18T01:45:13.171Z,5.39
2023-04-18T01:47:15.623Z,5.30
2023-04-18T01:49:17.224Z,5.24
2023-04-18T01:51:18.734Z,5.22
2023-04-18T01:53:20.407Z,5.28
2023-04-18T01:55:22.169Z,5.21
2023-04-18T01:57:23.812Z,5.17
2023-04-18T01:59:25.500Z,5.13
2023-04-18T02:01:27.403Z,5.03
2023-04-18T02:03:29.046Z,5.03
2023-04-18T02:05:30.717Z,4.97
2023-04-18T02:07:34.328Z,4.81
2023-04-18T02:09:35.818Z,4.72
2023-04-18T02:11:38.294Z,4.72
2023-04-18T02:13:39.865Z,4.63
2023-04-18T02:15:44.368Z,4.50
2023-04-18T02:17:50.492Z,4.35
2023-04-18T02:19:52.320Z,4.24
2023-04-18T02:21:54.420Z,4.31
2023-04-18T02:23:59.040Z,4.20
2023-04-18T02:26:00.875Z,4.29
2023-04-18T02:28:02.499Z,4.34
2023-04-18T02:30:07.093Z,4.46
2023-04-18T02:32:09.161Z,4.51
2023-04-18T02:34:10.890Z,4.50
2023-04-18T02:36:13.116Z,4.52
2023-04-18T02:38:15.997Z,4.52
2023-04-18T02:40:17.893Z,4.40
2023-04-18T02:42:19.390Z,4.44
2023-04-18T02:44:20.879Z,4.48
2023-04-18T02:46:22.760Z,4.60
2023-04-18T02:48:24.543Z,4.63
2023-04-18T02:50:26.964Z,4.61
2023-04-18T02:52:30.520Z,4.55
2023-04-18T02:54:32.156Z,4.55
2023-04-18T02:56:40.054Z,4.66
2023-04-18T02:58:50.861Z,4.77
2023-04-18T03:01:13.012Z,4.86
2023-04-18T03:03:25.847Z,4.84
2023-04-18T03:05:35.995Z,4.85
2023-04-18T03:07:39.613Z,4.88
2023-04-18T03:09:41.187Z,4.99
2023-04-18T03:11:52.267Z,5.08
2023-04-18T03:13:58.849Z,5.02
2023-04-18T03:16:05.793Z,4.95
2023-04-18T03:18:08.591Z,5.09
2023-04-18T03:20:12.669Z,5.10
2023-04-18T03:22:16.201Z,5.08
2023-04-18T03:24:25.250Z,5.17
2023-04-18T03:26:29.321Z,5.24
2023-04-18T03:28:31.960Z,5.04
2023-04-18T03:30:33.705Z,5.14
2023-04-18T03:32:36.653Z,5.09
2023-04-18T03:34:38.777Z,5.11
2023-04-18T03:36:42.970Z,5.15
2023-04-18T03:38:46.133Z,5.19
2023-04-18T03:40:47.756Z,5.23
2023-04-18T03:42:56.387Z,5.27
2023-04-18T03:44:57.945Z,5.32
2023-04-18T03:47:00.438Z,5.22
2023-04-18T03:49:03.725Z,5.24
2023-04-18T03:51:05.970Z,5.22
2023-04-18T03:53:07.847Z,5.22
2023-04-18T03:55:11.911Z,5.25
2023-04-18T03:57:13.459Z,5.24
2023-04-18T03:59:16.186Z,5.16
2023-04-18T04:01:21.744Z,5.22
2023-04-18T04:03:30.337Z,5.20
2023-04-18T04:05:32.879Z,5.32
2023-04-18T04:07:34.808Z,5.25
2023-04-18T04:09:36.523Z,5.23
2023-04-18T04:11:38.384Z,5.34
2023-04-18T04:13:42.141Z,5.37
2023-04-18T04:15:44.183Z,5.42
2023-04-18T04:17:46.042Z,5.47
2023-04-18T04:19:49.726Z,5.64
2023-04-18T04:21:54.146Z,5.77
2023-04-18T04:23:57.230Z,5.63
2023-04-18T04:26:10.153Z,5.60
2023-04-18T04:28:23.766Z,5.63
2023-04-18T04:30:31.639Z,5.65
2023-04-18T04:32:33.565Z,5.79
2023-04-18T04:34:35.892Z,5.74
2023-04-18T04:36:41.083Z,5.79
2023-04-18T04:38:44.315Z,5.81
2023-04-18T04:40:46.385Z,5.84
2023-04-18T04:42:49.174Z,5.95
2023-04-18T04:44:57.342Z,6.01
2023-04-18T04:46:59.328Z,6.01
2023-04-18T04:49:06.582Z,6.04
2023-04-18T04:51:08.237Z,6.03
2023-04-18T04:53:19.212Z,6.09
2023-04-18T04:55:21.391Z,6.26
2023-04-18T04:57:23.040Z,6.42
2023-04-18T04:59:24.851Z,6.26
2023-04-18T05:01:26.632Z,6.26
2023-04-18T05:03:28.745Z,6.12
2023-04-18T05:05:31.927Z,6.20
2023-04-18T05:07:33.429Z,6.22
2023-04-18T05:09:35.028Z,6.32
2023-04-18T05:11:36.542Z,6.06
2023-04-18T05:13:38.078Z,6.05
2023-04-18T05:15:39.734Z,6.19
2023-04-18T05:17:41.595Z,6.22
2023-04-18T05:19:44.255Z,6.26
2023-04-18T05:21:45.834Z,6.35
2023-04-18T05:23:47.349Z,6.35
2023-04-18T05:25:48.883Z,6.29
2023-04-18T05:27:50.527Z,6.40
2023-04-18T05:29:53.558Z,6.54
2023-04-18T05:31:55.354Z,6.46
2023-04-18T05:33:57.004Z,6.40
2023-04-18T05:35:59.396Z,6.38
2023-04-18T05:38:00.956Z,6.21
2023-04-18T05:40:03.779Z,6.34
2023-04-18T05:42:05.282Z,6.38
2023-04-18T05:44:06.896Z,6.43
2023-04-18T05:46:09.073Z,6.35
2023-04-18T05:48:10.916Z,6.33
2023-04-18T05:50:18.079Z,6.44
2023-04-18T05:52:19.624Z,6.61
2023-04-18T05:54:21.450Z,6.57
2023-04-18T05:56:23.030Z,6.72
2023-04-18T05:58:24.598Z,6.70
2023-04-18T06:00:26.293Z,6.35
2023-04-18T06:02:28.052Z,6.43
2023-04-18T06:04:30.360Z,6.44
2023-04-18T06:06:32.967Z,6.45
2023-04-18T06:08:34.428Z,6.52
2023-04-18T06:10:37.721Z,6.69
2023-04-18T06:12:40.827Z,6.79
2023-04-18T06:14:42.518Z,6.42
2023-04-18T06:16:44.275Z,6.65
2023-04-18T06:18:45.931Z,6.78
2023-04-18T06:20:47.497Z,6.87
2023-04-18T06:22:49.073Z,7.03
2023-04-18T06:24:50.931Z,7.10
2023-04-18T06:26:54.007Z,7.18
2023-04-18T06:28:55.909Z,7.24
2023-04-18T06:30:57.556Z,7.16
2023-04-18T06:32:59.447Z,6.99
2023-04-18T06:35:01.077Z,7.05
2023-04-18T06:37:02.699Z,7.11
2023-04-18T06:39:04.469Z,7.08
2023-04-18T06:41:06.111Z,7.19
2023-04-18T06:43:07.904Z,7.30
2023-04-18T06:45:12.860Z,7.38
2023-04-18T06:47:14.531Z,7.28
2023-04-18T06:49:16.193Z,7.43
2023-04-18T06:51:17.792Z,7.61
2023-04-18T06:53:19.661Z,7.64
2023-04-18T06:55:21.511Z,7.81
2023-04-18T06:57:23.102Z,7.82
2023-04-18T06:59:24.690Z,7.62
2023-04-18T07:01:26.374Z,7.70
2023-04-18T07:03:28.151Z,7.61
2023-04-18T07:05:29.774Z,7.81
2023-04-18T07:07:32.339Z,7.90
2023-04-18T07:09:33.847Z,8.20
2023-04-18T07:11:35.432Z,8.37
2023-04-18T07:13:37.161Z,8.65
2023-04-18T07:15:38.771Z,9.00
2023-04-18T07:17:40.522Z,9.15
2023-04-18T07:19:42.346Z,9.42
2023-04-18T07:21:45.804Z,9.58
2023-04-18T07:23:47.310Z,9.66
2023-04-18T07:25:49.495Z,9.79
2023-04-18T07:27:51.051Z,9.77
2023-04-18T07:29:52.764Z,9.98
2023-04-18T07:31:54.548Z,9.60
2023-04-18T07:33:56.122Z,9.40
2023-04-18T07:35:57.977Z,9.73
2023-04-18T07:37:59.484Z,9.63
2023-04-18T07:40:00.967Z,9.52
2023-04-18T07:42:05.844Z,9.57
2023-04-18T07:44:07.497Z,9.74
2023-04-18T07:46:09.081Z,9.92
2023-04-18T07:48:11.280Z,9.85
2023-04-18T07:50:13.032Z,10.16
2023-04-18T07:52:14.795Z,10.48
2023-04-18T07:54:16.507Z,10.37
2023-04-18T07:56:18.550Z,10.44
2023-04-18T07:58:20.483Z,10.52
2023-04-18T08:00:22.051Z,10.42
2023-04-18T08:02:23.729Z,10.62
2023-04-18T08:04:27.013Z,10.10
2023-04-18T08:06:30.926Z,10.07
2023-04-18T08:08:33.506Z,10.30
2023-04-18T08:10:35.575Z,10.52
2023-04-18T08:12:37.648Z,10.62
2023-04-18T08:14:39.202Z,10.42
2023-04-18T08:16:40.857Z,10.37
2023-04-18T08:18:42.486Z,10.49
2023-04-18T08:20:44.099Z,10.72
2023-04-18T08:23:02.362Z,10.40
2023-04-18T08:25:07.526Z,10.38
2023-04-18T08:27:09.043Z,10.40
2023-04-18T08:29:11.710Z,10.11
2023-04-18T08:31:14.922Z,10.13
2023-04-18T08:33:16.739Z,10.33
2023-04-18T08:35:18.558Z,10.57
2023-04-18T08:37:20.361Z,10.62
2023-04-18T08:39:25.450Z,10.30
2023-04-18T08:41:29.904Z,10.36
2023-04-18T08:43:31.528Z,10.56
2023-04-18T08:45:33.516Z,10.98
2023-04-18T08:47:37.713Z,11.37
2023-04-18T08:49:40.056Z,11.96
2023-04-18T08:51:43.115Z,12.25
2023-04-18T08:53:45.355Z,12.45
2023-04-18T08:55:50.365Z,12.87
2023-04-18T08:57:54.970Z,13.06
2023-04-18T09:00:00.594Z,13.03
2023-04-18T09:02:06.384Z,12.40
2023-04-18T09:04:07.987Z,12.56
2023-04-18T09:06:18.850Z,12.38
2023-04-18T09:08:26.653Z,12.25
2023-04-18T09:10:34.615Z,12.21
2023-04-18T09:12:52.518Z,12.72
2023-04-18T09:15:15.112Z,12.46
2023-04-18T09:17:43.797Z,12.87
2023-04-18T09:19:50.037Z,13.21
2023-04-18T09:21:59.858Z,12.83
2023-04-18T09:24:24.149Z,12.90
2023-04-18T09:26:36.221Z,12.73
2023-04-18T09:28:38.289Z,13.15
2023-04-18T09:30:41.089Z,13.34
2023-04-18T09:32:45.003Z,13.76
2023-04-18T09:34:47.100Z,14.20
2023-04-18T09:37:05.707Z,13.57
2023-04-18T09:39:07.552Z,13.17
2023-04-18T09:41:10.509Z,13.78
2023-04-18T09:43:19.601Z,13.25
2023-04-18T09:45:22.235Z,13.61
2023-04-18T09:47:23.870Z,13.96
2023-04-18T09:49:25.659Z,14.51
2023-04-18T09:51:27.282Z,14.91
2023-04-18T09:53:30.079Z,14.56
2023-04-18T09:55:32.179Z,14.73
2023-04-18T09:57:35.737Z,14.85
2023-04-18T09:59:48.037Z,14.96
2023-04-18T10:01:51.322Z,14.98
2023-04-18T10:03:56.277Z,14.94
2023-04-18T10:05:58.100Z,15.00
2023-04-18T10:08:00.096Z,14.80
2023-04-18T10:10:02.880Z,14.85
2023-04-18T10:12:04.487Z,14.83
2023-04-18T10:14:13.302Z,13.80
2023-04-18T10:16:16.926Z,12.93
2023-04-18T10:18:23.205Z,13.24
2023-04-18T10:20:26.735Z,13.22
2023-04-18T10:22:28.389Z,13.15
2023-04-18T10:24:45.295Z,13.83
2023-04-18T10:26:47.317Z,14.07
2023-04-18T10:28:53.510Z,14.66
2023-04-18T10:31:05.530Z,14.56
2023-04-18T10:35:28.713Z,15.75
2023-04-18T10:37:31.919Z,15.65
2023-04-18T10:39:57.510Z,16.09
2023-04-18T10:41:59.103Z,15.89
2023-04-18T10:44:08.412Z,16.06
2023-04-18T10:46:24.036Z,15.57
2023-04-18T10:48:38.452Z,16.06
2023-04-18T10:51:12.675Z,15.55
2023-04-18T10:53:14.370Z,15.05
2023-04-18T10:55:26.148Z,15.14
2023-04-18T10:57:48.687Z,16.17
2023-04-18T10:59:52.815Z,16.70
2023-04-18T11:01:57.198Z,16.88
2023-04-18T11:03:59.789Z,16.46
2023-04-18T11:06:02.879Z,15.33
2023-04-18T11:08:04.997Z,15.04
2023-04-18T11:10:08.624Z,14.95
2023-04-18T11:12:11.215Z,15.44
2023-04-18T11:14:13.005Z,15.40
2023-04-18T11:16:26.950Z,15.61
2023-04-18T11:18:40.906Z,15.63
2023-04-18T11:20:50.198Z,15.11
2023-04-18T11:22:54.648Z,14.40
2023-04-18T11:25:00.795Z,14.25
2023-04-18T11:27:04.323Z,14.25
2023-04-18T11:29:06.100Z,14.63
2023-04-18T11:31:08.367Z,14.78
2023-04-18T11:33:16.789Z,14.17
2023-04-18T11:35:18.824Z,14.22
2023-04-18T11:37:21.017Z,14.32
2023-04-18T11:39:23.092Z,14.35
2023-04-18T11:41:24.804Z,14.15
2023-04-18T11:43:26.493Z,13.80
2023-04-18T11:45:28.360Z,13.68
2023-04-18T11:47:33.871Z,13.60
2023-04-18T11:49:35.694Z,13.13
2023-04-18T11:51:43.503Z,13.24
2023-04-18T11:53:45.379Z,13.18
2023-04-18T11:55:55.984Z,13.46
2023-04-18T11:57:59.988Z,13.34
2023-04-18T12:00:01.981Z,13.43
2023-04-18T12:04:16.648Z,14.17
2023-04-18T12:06:18.533Z,14.65
2023-04-18T12:08:20.914Z,14.73
2023-04-18T12:10:22.436Z,14.58
2023-04-18T12:12:24.001Z,14.98
2023-04-18T12:16:02.118Z,15.32
2023-04-18T12:18:05.438Z,14.84
2023-04-18T12:20:09.770Z,14.71
2023-04-18T12:22:11.383Z,14.50
2023-04-18T12:24:17.184Z,14.35
2023-04-18T12:26:18.781Z,14.57
2023-04-18T12:28:21.154Z,14.70
2023-04-18T12:30:33.736Z,14.88
2023-04-18T12:32:36.248Z,15.30
2023-04-18T12:34:37.832Z,15.42
2023-04-18T12:36:39.346Z,15.49
2023-04-18T12:38:41.137Z,15.75
2023-04-18T12:40:42.662Z,15.69
2023-04-18T12:42:45.313Z,15.68
2023-04-18T12:44:48.404Z,15.46
2023-04-18T12:46:50.748Z,15.15
2023-04-18T12:48:52.504Z,15.31
2023-04-18T12:50:54.213Z,15.19
2023-04-18T12:52:58.891Z,14.99
2023-04-18T12:55:01.012Z,15.34
2023-04-18T12:57:03.202Z,15.64
2023-04-18T12:59:04.697Z,15.20
2023-04-18T13:01:06.552Z,15.64
2023-04-18T13:03:09.684Z,15.92
2023-04-18T13:05:14.278Z,16.51
2023-04-18T13:07:16.030Z,17.22
2023-04-18T13:09:17.657Z,16.90
2023-04-18T13:11:20.549Z,17.68
2023-04-18T13:13:22.176Z,17.03
2023-04-18T13:15:23.856Z,17.35
2023-04-18T13:17:26.020Z,16.87
2023-04-18T13:19:27.519Z,16.69
2023-04-18T13:21:29.169Z,15.48
2023-04-18T13:23:30.704Z,15.63
2023-04-18T13:25:32.321Z,15.53
2023-04-18T13:27:34.246Z,15.58
2023-04-18T13:29:38.072Z,15.20
2023-04-18T13:31:39.711Z,14.91
2023-04-18T13:33:41.568Z,14.66
2023-04-18T13:35:43.133Z,15.30
2023-04-18T13:37:44.698Z,15.69
2023-04-18T13:39:46.276Z,16.42
2023-04-18T13:41:47.871Z,16.97
2023-04-18T13:43:49.439Z,16.94
2023-04-18T13:45:53.985Z,16.52
2023-04-18T13:47:55.973Z,16.72
2023-04-18T13:49:57.892Z,17.79
2023-04-18T13:51:59.687Z,18.08
2023-04-18T13:54:01.656Z,17.55
2023-04-18T13:56:03.382Z,17.11
2023-04-18T13:58:05.160Z,15.59
2023-04-18T14:00:09.084Z,16.66
2023-04-18T14:02:16.477Z,17.73
2023-04-18T14:04:18.855Z,18.71
2023-04-18T14:06:20.650Z,19.40
2023-04-18T14:08:22.231Z,19.21
2023-04-18T14:10:23.907Z,19.19
2023-04-18T14:12:25.548Z,18.31
2023-04-18T14:14:27.133Z,18.67
2023-04-18T14:16:31.757Z,18.63
2023-04-18T14:18:34.159Z,18.14
2023-04-18T14:20:36.240Z,17.76
2023-04-18T14:22:37.815Z,17.40
2023-04-18T14:24:39.612Z,16.72
2023-04-18T14:26:41.759Z,17.13
2023-04-18T14:28:43.365Z,17.34
2023-04-18T14:30:44.929Z,17.53
2023-04-18T14:32:46.533Z,17.06
2023-04-18T14:34:48.115Z,16.82
2023-04-18T14:36:49.693Z,16.58
2023-04-18T14:38:51.212Z,16.65
2023-04-18T14:40:54.004Z,16.55
2023-04-18T14:42:55.987Z,16.83
2023-04-18T14:44:57.508Z,16.91
2023-04-18T14:46:59.048Z,16.86
2023-04-18T14:49:00.715Z,16.81
2023-04-18T14:51:04.844Z,16.59
2023-04-18T14:53:06.849Z,16.58
2023-04-18T14:55:09.798Z,16.62
2023-04-18T14:57:13.055Z,16.48
2023-04-18T14:59:16.762Z,16.38
2023-04-18T15:01:18.805Z,16.42
2023-04-18T15:03:20.660Z,15.97
2023-04-18T15:05:23.726Z,15.93
2023-04-18T15:07:25.320Z,16.17
2023-04-18T15:09:26.803Z,15.51
2023-04-18T15:11:28.321Z,13.78
2023-04-18T15:13:30.635Z,13.44
2023-04-18T15:15:35.482Z,13.65
2023-04-18T15:17:37.055Z,13.13
2023-04-18T15:19:38.791Z,12.89
2023-04-18T15:21:40.429Z,13.14
2023-04-18T15:23:41.941Z,13.46
2023-04-18T15:25:44.886Z,13.60
2023-04-18T15:27:46.390Z,13.54
2023-04-18T15:29:47.987Z,13.63
2023-04-18T15:31:49.754Z,13.48
2023-04-18T15:33:51.332Z,13.49
2023-04-18T15:35:55.251Z,13.09
2023-04-18T15:37:57.267Z,13.34
2023-04-18T15:39:58.883Z,13.44
2023-04-18T15:42:00.449Z,13.51
2023-04-18T15:44:03.120Z,13.47
2023-04-18T15:46:04.889Z,12.86
2023-04-18T15:48:06.678Z,12.94
2023-04-18T15:50:09.672Z,12.74
2023-04-18T15:52:11.338Z,12.75
2023-04-18T15:54:13.080Z,12.63
2023-04-18T15:56:14.852Z,12.84
2023-04-18T15:58:16.467Z,12.59
2023-04-18T16:00:19.566Z,12.67
2023-04-18T16:02:21.283Z,12.36
2023-04-18T16:04:23.984Z,12.34
2023-04-18T16:06:27.239Z,12.36
2023-04-18T16:08:29.875Z,12.24
2023-04-18T16:10:32.327Z,12.26
2023-04-18T16:12:34.590Z,12.13
2023-04-18T16:14:36.111Z,12.00
2023-04-18T16:16:37.833Z,11.94
2023-04-18T16:18:39.714Z,12.01
2023-04-18T16:20:41.161Z,11.92
2023-04-18T16:22:42.749Z,11.92
2023-04-18T16:24:44.241Z,11.87
2023-04-18T16:26:45.782Z,11.73
2023-04-18T16:28:48.404Z,11.74
2023-04-18T16:30:50.113Z,11.80
2023-04-18T16:32:52.146Z,11.68
2023-04-18T16:34:54.134Z,11.70
2023-04-18T16:36:55.768Z,11.68
2023-04-18T16:38:57.332Z,11.60
2023-04-18T16:41:00.916Z,11.69
2023-04-18T16:43:02.489Z,11.65
2023-04-18T16:45:04.423Z,11.68
2023-04-18T16:47:08.287Z,11.42
2023-04-18T16:49:10.202Z,11.50
2023-04-18T16:51:12.964Z,11.50
2023-04-18T16:53:14.577Z,11.57
2023-04-18T16:55:16.251Z,11.56
2023-04-18T16:57:17.897Z,11.59
2023-04-18T16:59:19.525Z,11.48
2023-04-18T17:01:21.322Z,11.55
2023-04-18T17:03:22.886Z,11.50
2023-04-18T17:05:25.813Z,11.33
2023-04-18T17:07:27.558Z,11.34
2023-04-18T17:09:30.178Z,11.26
2023-04-18T17:11:34.663Z,11.36
2023-04-18T17:13:36.464Z,11.30
2023-04-18T17:15:38.330Z,11.22
2023-04-18T17:17:40.115Z,11.25
2023-04-18T17:19:41.789Z,11.12
2023-04-18T17:21:43.977Z,11.20
2023-04-18T17:23:45.614Z,11.20
2023-04-18T17:25:47.491Z,11.01
2023-04-18T17:27:49.229Z,10.96
2023-04-18T17:29:50.891Z,10.73
2023-04-18T17:31:52.637Z,10.82
2023-04-18T17:33:54.583Z,10.69
2023-04-18T17:35:56.241Z,10.76
2023-04-18T17:37:58.009Z,10.65
2023-04-18T17:40:01.175Z,10.64
2023-04-18T17:42:02.999Z,10.58
2023-04-18T17:44:05.456Z,10.48
2023-04-18T17:46:06.983Z,10.60
2023-04-18T17:48:08.578Z,10.60
2023-04-18T17:50:10.752Z,10.58
2023-04-18T17:52:12.342Z,10.65
2023-04-18T17:54:14.044Z,10.64
2023-04-18T17:56:15.599Z,10.63
2023-04-18T17:58:17.232Z,10.75
2023-04-18T18:00:18.985Z,10.82
2023-04-18T18:02:20.563Z,10.42
2023-04-18T18:04:25.818Z,10.30
2023-04-18T18:06:28.411Z,10.31
2023-04-18T18:08:30.617Z,10.33
2023-04-18T18:10:32.284Z,10.15
2023-04-18T18:12:35.711Z,10.21
2023-04-18T18:14:37.740Z,10.19
2023-04-18T18:16:39.712Z,10.23
2023-04-18T18:18:41.870Z,10.26
2023-04-18T18:20:43.663Z,10.19
2023-04-18T18:22:45.599Z,10.23
2023-04-18T18:24:47.319Z,10.12
2023-04-18T18:26:51.000Z,10.14
2023-04-18T18:28:53.945Z,10.10
2023-04-18T18:30:55.619Z,10.18
2023-04-18T18:32:57.293Z,10.21
2023-04-18T18:34:58.966Z,9.98
2023-04-18T18:37:00.569Z,9.96
2023-04-18T18:39:02.290Z,9.85
2023-04-18T18:41:04.503Z,9.83
2023-04-18T18:43:06.254Z,9.91
2023-04-18T18:45:08.882Z,9.87
2023-04-18T18:47:10.503Z,9.91
2023-04-18T18:49:12.303Z,9.73
2023-04-18T18:51:15.986Z,10.06
2023-04-18T18:53:17.993Z,9.95
2023-04-18T18:55:19.539Z,9.84
2023-04-18T18:57:21.202Z,9.77
2023-04-18T18:59:22.720Z,9.79
2023-04-18T19:01:24.431Z,9.76
2023-04-18T19:03:26.293Z,9.80
2023-04-18T19:05:27.894Z,9.87
2023-04-18T19:07:30.186Z,9.92
2023-04-18T19:09:31.799Z,9.88
2023-04-18T19:11:33.393Z,10.03
2023-04-18T19:13:35.372Z,9.87
2023-04-18T19:15:36.866Z,9.92
2023-04-18T19:17:38.467Z,9.99
2023-04-18T19:19:40.107Z,10.02
2023-04-18T19:21:45.791Z,9.80
2023-04-18T19:23:47.414Z,9.87
2023-04-18T19:25:48.939Z,9.87
2023-04-18T19:27:51.178Z,9.77
2023-04-18T19:29:55.764Z,9.86
2023-04-18T19:31:57.387Z,9.87
2023-04-18T19:33:58.946Z,10.00
2023-04-18T19:36:00.549Z,9.98
2023-04-18T19:38:02.648Z,9.98
2023-04-18T19:40:04.628Z,9.91
2023-04-18T19:42:07.314Z,9.87
2023-04-18T19:44:08.900Z,9.92
2023-04-18T19:46:10.759Z,9.84
2023-04-18T19:48:12.454Z,9.87
2023-04-18T19:50:14.525Z,9.85
2023-04-18T19:52:16.540Z,9.79
2023-04-18T19:54:21.646Z,9.77
2023-04-18T19:56:23.582Z,9.83
2023-04-18T19:58:44.584Z,9.69
2023-04-18T20:00:46.315Z,9.48
2023-04-18T20:02:48.130Z,9.55
2023-04-18T20:04:49.969Z,9.52
2023-04-18T20:06:51.885Z,9.65
2023-04-18T20:08:54.235Z,9.74
2023-04-18T20:10:56.479Z,9.65
2023-04-18T20:12:58.006Z,9.68
2023-04-18T20:14:59.681Z,9.37
2023-04-18T20:17:01.205Z,9.30
2023-04-18T20:19:03.539Z,9.55
2023-04-18T20:21:09.672Z,9.48
2023-04-18T20:23:11.502Z,9.61
2023-04-18T20:25:13.058Z,9.54
2023-04-18T20:27:15.211Z,10.44
2023-04-18T20:29:16.977Z,10.16
2023-04-18T20:31:18.722Z,10.02
2023-04-18T20:33:20.485Z,9.71
2023-04-18T20:35:22.336Z,9.33
2023-04-18T20:37:24.420Z,9.38
2023-04-18T20:39:26.262Z,9.36
2023-04-18T20:41:31.065Z,9.40
2023-04-18T20:43:37.084Z,9.47
2023-04-18T20:45:42.555Z,9.37
2023-04-18T20:47:44.116Z,9.38
2023-04-18T20:49:45.941Z,9.38
2023-04-18T20:51:47.704Z,9.28
2023-04-18T20:53:49.390Z,9.15
2023-04-18T20:55:50.986Z,9.26
2023-04-18T20:57:53.611Z,9.23
2023-04-18T20:59:58.446Z,9.12
2023-04-18T21:02:00.758Z,9.25
2023-04-18T21:04:02.759Z,9.08
2023-04-18T21:06:04.580Z,9.19
2023-04-18T21:08:06.293Z,9.17
2023-04-18T21:10:08.389Z,9.11
2023-04-18T21:12:10.049Z,9.06
2023-04-18T21:14:11.760Z,8.94
2023-04-18T21:16:13.342Z,8.94
2023-04-18T21:18:15.003Z,9.08
2023-04-18T21:20:17.068Z,9.20
2023-04-18T21:22:18.682Z,9.18
2023-04-18T21:24:20.353Z,9.25
2023-04-18T21:26:22.118Z,9.33
2023-04-18T21:28:23.711Z,9.29
2023-04-18T21:30:25.300Z,9.22
2023-04-18T21:32:26.885Z,9.21
2023-04-18T21:34:28.668Z,9.24
2023-04-18T21:36:31.397Z,9.34
2023-04-18T21:38:32.934Z,9.30
2023-04-18T21:40:34.439Z,9.37
2023-04-18T21:42:39.577Z,9.21
2023-04-18T21:44:42.218Z,9.23
2023-04-18T21:46:44.030Z,9.17
2023-04-18T21:48:47.006Z,9.17
2023-04-18T21:50:54.883Z,9.20
2023-04-18T21:52:56.485Z,9.29
2023-04-18T21:54:59.157Z,9.14
2023-04-18T21:57:00.671Z,9.28
2023-04-18T21:59:02.134Z,9.25
2023-04-18T22:01:03.713Z,9.32
2023-04-18T22:03:05.552Z,9.23
2023-04-18T22:05:08.046Z,9.00
2023-04-18T22:07:09.956Z,9.02
2023-04-18T22:09:11.993Z,9.15
2023-04-18T22:11:13.686Z,9.14
2023-04-18T22:13:16.591Z,9.07
2023-04-18T22:15:18.174Z,9.29
2023-04-18T22:17:21.945Z,9.10
2023-04-18T22:19:24.708Z,9.13
2023-04-18T22:21:26.389Z,8.95
2023-04-18T22:23:28.166Z,9.00
2023-04-18T22:25:30.323Z,9.10
2023-04-18T22:27:31.852Z,9.04
2023-04-18T22:29:33.381Z,9.03
2023-04-18T22:31:34.960Z,9.09
2023-04-18T22:33:36.494Z,9.03
2023-04-18T22:35:38.066Z,8.90
2023-04-18T22:37:39.740Z,8.99
2023-04-18T22:39:41.252Z,8.90
2023-04-18T22:41:43.222Z,9.04
2023-04-18T22:43:47.733Z,9.05
2023-04-18T22:45:50.971Z,8.98
2023-04-18T22:47:53.180Z,9.00
2023-04-18T22:49:54.805Z,8.82
2023-04-18T22:51:57.024Z,8.89
2023-04-18T22:53:58.554Z,8.93
2023-04-18T22:56:00.255Z,9.05
2023-04-18T22:58:03.070Z,9.03
2023-04-18T23:00:06.476Z,9.10
2023-04-18T23:02:08.130Z,9.15
2023-04-18T23:04:09.949Z,9.16
2023-04-18T23:06:11.699Z,9.06
2023-04-18T23:08:13.195Z,9.02
2023-04-18T23:10:14.726Z,9.06
2023-04-18T23:12:16.572Z,9.06
2023-04-18T23:14:18.256Z,9.10
2023-04-18T23:16:19.768Z,9.04
2023-04-18T23:18:21.290Z,8.92
2023-04-18T23:20:23.966Z,9.06
2023-04-18T23:22:25.528Z,9.26
2023-04-18T23:24:27.518Z,9.16
2023-04-18T23:26:29.057Z,9.10
2023-04-18T23:28:30.639Z,9.01
2023-04-18T23:30:35.287Z,8.95
2023-04-18T23:32:36.924Z,9.00
2023-04-18T23:34:38.489Z,9.01
2023-04-18T23:36:40.518Z,8.99
2023-04-18T23:38:42.757Z,8.98
2023-04-18T23:40:44.294Z,8.92
2023-04-18T23:42:46.404Z,8.88
2023-04-18T23:44:47.984Z,8.95
2023-04-18T23:46:53.544Z,9.15
2023-04-18T23:48:55.193Z,9.00
2023-04-18T23:50:57.389Z,9.07
2023-04-18T23:53:01.275Z,9.06
2023-04-18T23:55:02.799Z,9.19
2023-04-18T23:57:04.921Z,9.29
2023-04-18T23:59:06.523Z,9.18
